createdAt,value
2018-02-05T00:00:06.618Z,15.50
2018-02-05T00:02:34.181Z,18.03
2018-02-05T00:05:01.754Z,20.23
2018-02-05T00:07:29.333Z,16.97
2018-02-05T00:09:56.894Z,17.53
2018-02-05T00:12:24.479Z,17.70
2018-02-05T00:14:52.100Z,17.80
2018-02-05T00:17:19.718Z,20.00
2018-02-05T00:19:47.277Z,18.27
2018-02-05T00:22:14.876Z,25.53
2018-02-05T00:24:43.358Z,23.63
2018-02-05T00:27:10.958Z,24.53
2018-02-05T00:29:38.534Z,19.53
2018-02-05T00:32:06.094Z,18.33
2018-02-05T00:34:33.801Z,17.70
2018-02-05T00:37:01.362Z,17.40
2018-02-05T00:39:28.984Z,16.90
2018-02-05T00:41:56.623Z,17.63
2018-02-05T00:44:29.149Z,17.77
2018-02-05T00:46:56.780Z,19.60
2018-02-05T00:49:24.355Z,17.70
2018-02-05T00:51:51.992Z,17.93
2018-02-05T00:54:19.686Z,19.07
2018-02-05T00:56:47.255Z,20.03
2018-02-05T00:59:14.888Z,20.07
2018-02-05T01:01:42.523Z,19.60
2018-02-05T01:04:10.090Z,20.23
2018-02-05T01:06:37.672Z,19.63
2018-02-05T01:09:05.288Z,21.30
2018-02-05T01:11:32.873Z,22.20
2018-02-05T01:14:00.453Z,23.30
2018-02-05T01:16:28.123Z,20.43
2018-02-05T01:18:55.686Z,20.30
2018-02-05T01:21:23.302Z,20.60
2018-02-05T01:23:50.870Z,20.07
2018-02-05T01:26:18.437Z,22.07
2018-02-05T01:28:46.015Z,21.57
2018-02-05T01:31:13.641Z,19.00
2018-02-05T01:33:41.332Z,20.33
2018-02-05T01:36:08.913Z,16.27
2018-02-05T01:38:36.537Z,18.17
2018-02-05T01:41:04.112Z,18.20
2018-02-05T01:43:31.692Z,18.17
2018-02-05T01:45:59.328Z,18.30
2018-02-05T01:48:26.890Z,18.77
2018-02-05T01:50:54.659Z,18.87
2018-02-05T01:53:22.283Z,20.83
2018-02-05T01:55:49.912Z,18.87
2018-02-05T01:58:17.493Z,17.70
2018-02-05T02:00:45.118Z,18.33
2018-02-05T02:03:12.703Z,18.17
2018-02-05T02:05:40.266Z,17.90
2018-02-05T02:08:07.895Z,20.17
2018-02-05T02:10:35.461Z,18.57
2018-02-05T02:13:03.021Z,20.40
2018-02-05T02:15:30.602Z,19.57
2018-02-05T02:17:58.170Z,21.00
2018-02-05T02:20:25.769Z,21.07
2018-02-05T02:22:53.365Z,21.23
2018-02-05T02:25:21.034Z,19.70
2018-02-05T02:27:48.649Z,19.80
2018-02-05T02:30:16.218Z,20.70
2018-02-05T02:32:43.794Z,21.30
2018-02-05T02:35:11.364Z,21.93
2018-02-05T02:37:38.935Z,24.67
2018-02-05T02:40:06.522Z,24.50
2018-02-05T02:42:34.230Z,22.77
2018-02-05T02:45:01.839Z,22.70
2018-02-05T02:47:29.437Z,21.07
2018-02-05T02:49:56.990Z,20.40
2018-02-05T02:52:24.554Z,21.23
2018-02-05T02:54:52.143Z,21.57
2018-02-05T02:57:19.779Z,20.33
2018-02-05T02:59:47.381Z,20.00
2018-02-05T03:02:14.987Z,20.20
2018-02-05T03:04:42.565Z,18.30
2018-02-05T03:07:10.214Z,20.83
2018-02-05T03:09:37.768Z,20.40
2018-02-05T03:12:05.346Z,19.80
2018-02-05T03:14:32.917Z,19.60
2018-02-05T03:17:00.538Z,19.23
2018-02-05T03:19:28.167Z,21.77
2018-02-05T03:21:55.734Z,21.00
2018-02-05T03:24:23.372Z,21.50
2018-02-05T03:26:51.013Z,20.13
2018-02-05T03:29:18.596Z,21.37
2018-02-05T03:31:46.230Z,19.80
2018-02-05T03:34:13.845Z,20.63
2018-02-05T03:36:41.451Z,20.70
2018-02-05T03:39:09.075Z,21.03
2018-02-05T03:41:36.720Z,20.60
2018-02-05T03:44:04.347Z,20.83
2018-02-05T03:46:31.940Z,20.20
2018-02-05T03:48:59.518Z,22.40
2018-02-05T03:51:27.126Z,23.10
2018-02-05T03:53:54.687Z,21.90
2018-02-05T03:56:22.317Z,21.43
2018-02-05T03:58:49.894Z,23.50
2018-02-05T04:01:17.466Z,23.87
2018-02-05T04:03:45.106Z,24.87
2018-02-05T04:06:12.686Z,25.20
2018-02-05T04:08:40.301Z,22.70
2018-02-05T04:11:07.870Z,23.03
2018-02-05T04:13:35.550Z,21.20
2018-02-05T04:16:03.270Z,19.57
2018-02-05T04:18:30.908Z,20.43
2018-02-05T04:20:58.484Z,20.93
2018-02-05T04:23:26.050Z,25.50
2018-02-05T04:25:53.663Z,26.57
2018-02-05T04:28:21.206Z,24.40
2018-02-05T04:30:48.774Z,25.47
2018-02-05T04:33:16.349Z,26.93
2018-02-05T04:35:43.918Z,24.17
2018-02-05T04:38:11.501Z,24.20
2018-02-05T04:40:39.070Z,24.40
2018-02-05T04:43:06.689Z,23.83
2018-02-05T04:45:34.263Z,22.80
2018-02-05T04:48:01.851Z,23.03
2018-02-05T04:50:29.417Z,23.00
2018-02-05T04:52:57.051Z,23.63
2018-02-05T04:55:24.620Z,25.27
2018-02-05T04:57:52.182Z,25.13
2018-02-05T05:00:19.785Z,22.70
2018-02-05T05:02:47.350Z,24.10
2018-02-05T05:05:14.959Z,21.83
2018-02-05T05:07:42.531Z,22.90
2018-02-05T05:10:10.089Z,39.17
2018-02-05T05:12:37.663Z,40.20
2018-02-05T05:15:05.227Z,49.87
2018-02-05T05:17:32.903Z,33.40
2018-02-05T05:20:00.529Z,34.17
2018-02-05T05:22:28.077Z,30.00
2018-02-05T05:24:55.661Z,30.00
2018-02-05T05:27:23.740Z,29.47
2018-02-05T05:29:51.354Z,28.70
2018-02-05T05:32:18.993Z,27.53
2018-02-05T05:34:46.803Z,26.07
2018-02-05T05:37:14.388Z,26.80
2018-02-05T05:39:41.955Z,28.33
2018-02-05T05:42:09.594Z,25.90
2018-02-05T05:44:37.156Z,30.47
2018-02-05T05:47:04.741Z,32.00
2018-02-05T05:49:32.378Z,28.37
2018-02-05T05:52:00.057Z,27.77
2018-02-05T05:54:27.701Z,30.03
2018-02-05T05:56:55.275Z,30.43
2018-02-05T05:59:22.859Z,31.30
2018-02-05T06:01:50.430Z,33.17
2018-02-05T06:04:18.127Z,30.57
2018-02-05T06:06:45.706Z,33.53
2018-02-05T06:09:13.390Z,30.80
2018-02-05T06:11:41.009Z,29.27
2018-02-05T06:14:08.579Z,30.63
2018-02-05T06:16:36.136Z,27.73
2018-02-05T06:19:04.001Z,30.47
2018-02-05T06:21:31.639Z,23.70
2018-02-05T06:23:59.207Z,30.70
2018-02-05T06:26:26.778Z,28.17
2018-02-05T06:28:54.433Z,31.60
2018-02-05T06:31:22.059Z,27.50
2018-02-05T06:33:49.710Z,26.13
2018-02-05T06:36:17.286Z,24.37
2018-02-05T06:38:44.885Z,27.00
2018-02-05T06:41:12.522Z,42.63
2018-02-05T06:43:40.098Z,33.97
2018-02-05T06:46:07.681Z,24.80
2018-02-05T06:48:35.311Z,17.30
2018-02-05T06:51:14.775Z,20.63
2018-02-05T06:53:54.151Z,21.10
2018-02-05T06:56:24.894Z,19.77
2018-02-05T06:58:52.468Z,17.00
2018-02-05T07:01:20.039Z,39.37
2018-02-05T07:03:47.679Z,24.63
2018-02-05T07:06:15.251Z,17.17
2018-02-05T07:08:42.830Z,17.63
2018-02-05T07:11:10.399Z,20.37
2018-02-05T07:13:38.018Z,17.10
2018-02-05T07:16:05.585Z,13.67
2018-02-05T07:18:33.218Z,14.30
2018-02-05T07:21:00.855Z,19.30
2018-02-05T07:23:28.478Z,18.10
2018-02-05T07:25:56.090Z,13.67
2018-02-05T07:28:23.657Z,13.80
2018-02-05T07:30:51.233Z,18.23
2018-02-05T07:33:18.799Z,16.63
2018-02-05T07:35:46.922Z,16.43
2018-02-05T07:38:14.562Z,16.50
2018-02-05T07:40:42.130Z,16.63
2018-02-05T07:43:09.703Z,19.47
2018-02-05T07:45:37.373Z,18.37
2018-02-05T07:48:04.949Z,20.50
2018-02-05T07:50:32.547Z,15.77
2018-02-05T07:53:00.127Z,14.70
2018-02-05T07:55:27.745Z,14.73
2018-02-05T07:57:55.346Z,15.47
2018-02-05T08:00:22.913Z,12.87
2018-02-05T08:02:50.542Z,16.63
2018-02-05T08:05:18.201Z,13.37
2018-02-05T08:07:45.787Z,13.03
2018-02-05T08:10:13.418Z,12.97
2018-02-05T08:12:41.049Z,13.53
2018-02-05T08:15:08.622Z,13.77
2018-02-05T08:17:36.203Z,12.77
2018-02-05T08:20:03.835Z,12.07
2018-02-05T08:22:31.406Z,13.27
2018-02-05T08:24:59.003Z,11.77
2018-02-05T08:27:26.636Z,10.40
2018-02-05T08:29:54.254Z,13.17
2018-02-05T08:32:21.837Z,12.50
2018-02-05T08:34:49.471Z,13.83
2018-02-05T08:37:17.117Z,11.00
2018-02-05T08:39:44.694Z,11.53
2018-02-05T08:42:12.342Z,12.00
2018-02-05T08:44:39.912Z,11.83
2018-02-05T08:47:07.541Z,14.47
2018-02-05T08:49:35.118Z,12.60
2018-02-05T08:52:02.690Z,14.80
2018-02-05T08:54:30.265Z,11.70
2018-02-05T08:56:57.829Z,12.47
2018-02-05T08:59:25.474Z,14.30
2018-02-05T09:01:53.020Z,11.80
2018-02-05T09:04:20.683Z,11.93
2018-02-05T09:06:48.251Z,10.07
2018-02-05T09:09:15.818Z,10.87
2018-02-05T09:11:43.446Z,10.37
2018-02-05T09:14:11.073Z,11.33
2018-02-05T09:16:38.722Z,14.50
2018-02-05T09:19:06.358Z,13.53
2018-02-05T09:21:33.969Z,12.80
2018-02-05T09:24:01.550Z,11.47
2018-02-05T09:26:29.117Z,10.80
2018-02-05T09:28:56.772Z,11.13
2018-02-05T09:31:24.395Z,11.73
2018-02-05T09:33:51.988Z,11.40
2018-02-05T09:36:19.567Z,11.57
2018-02-05T09:38:47.194Z,13.23
2018-02-05T09:41:14.770Z,13.53
2018-02-05T09:43:42.341Z,11.80
2018-02-05T09:46:09.983Z,11.97
2018-02-05T09:48:37.563Z,12.97
2018-02-05T09:51:05.211Z,12.77
2018-02-05T09:53:32.830Z,12.80
2018-02-05T09:56:00.516Z,11.57
2018-02-05T09:58:28.114Z,14.57
2018-02-05T10:00:55.694Z,10.93
2018-02-05T10:03:23.357Z,11.30
2018-02-05T10:05:50.995Z,12.00
2018-02-05T10:08:18.608Z,11.90
2018-02-05T10:10:46.183Z,11.33
2018-02-05T10:13:13.891Z,14.17
2018-02-05T10:15:41.538Z,13.70
2018-02-05T10:18:09.208Z,13.17
2018-02-05T10:20:36.773Z,14.13
2018-02-05T10:23:04.348Z,10.70
2018-02-05T10:25:31.923Z,12.03
2018-02-05T10:27:59.564Z,13.20
2018-02-05T10:30:27.242Z,12.03
2018-02-05T10:32:54.871Z,12.03
2018-02-05T10:35:22.551Z,12.77
2018-02-05T10:37:50.193Z,11.37
2018-02-05T10:40:17.758Z,12.13
2018-02-05T10:42:45.357Z,14.60
2018-02-05T10:45:12.945Z,13.60
2018-02-05T10:47:40.532Z,13.43
2018-02-05T10:50:08.178Z,13.10
2018-02-05T10:52:35.746Z,13.97
2018-02-05T10:55:03.338Z,14.83
2018-02-05T10:57:30.930Z,18.10
2018-02-05T10:59:58.567Z,18.13
2018-02-05T11:02:26.162Z,13.20
2018-02-05T11:04:53.787Z,15.83
2018-02-05T11:07:21.368Z,12.20
2018-02-05T11:09:49.009Z,13.87
2018-02-05T11:12:16.598Z,18.83
2018-02-05T11:14:44.177Z,17.77
2018-02-05T11:17:11.899Z,15.53
2018-02-05T11:19:39.499Z,14.27
2018-02-05T11:22:07.084Z,12.50
2018-02-05T11:24:34.659Z,12.10
2018-02-05T11:27:02.295Z,13.43
2018-02-05T11:29:29.886Z,10.97
2018-02-05T11:31:57.516Z,10.53
2018-02-05T11:34:25.142Z,10.60
2018-02-05T11:36:52.782Z,13.07
2018-02-05T11:39:20.354Z,12.40
2018-02-05T11:41:47.939Z,11.33
2018-02-05T11:44:15.580Z,10.73
2018-02-05T11:46:43.185Z,12.37
2018-02-05T11:49:10.812Z,10.67
2018-02-05T11:51:38.497Z,9.23
2018-02-05T11:54:06.134Z,9.40
2018-02-05T11:56:33.697Z,8.87
2018-02-05T11:59:01.277Z,10.30
2018-02-05T12:01:28.847Z,9.50
2018-02-05T12:03:56.426Z,10.50
2018-02-05T12:06:24.074Z,8.83
2018-02-05T12:08:51.706Z,9.30
2018-02-05T12:11:19.330Z,8.27
2018-02-05T12:13:46.950Z,9.17
2018-02-05T12:16:14.549Z,10.27
2018-02-05T12:18:42.110Z,9.43
2018-02-05T12:21:09.741Z,10.47
2018-02-05T12:23:37.350Z,12.03
2018-02-05T12:26:04.970Z,11.40
2018-02-05T12:28:32.601Z,10.83
2018-02-05T12:31:00.151Z,10.27
2018-02-05T12:33:27.715Z,9.27
2018-02-05T12:35:55.291Z,9.13
2018-02-05T12:38:22.866Z,10.50
2018-02-05T12:40:50.444Z,11.43
2018-02-05T12:43:18.125Z,10.17
2018-02-05T12:45:45.716Z,11.93
2018-02-05T12:48:13.405Z,10.80
2018-02-05T12:50:40.978Z,12.33
2018-02-05T12:53:08.653Z,9.90
2018-02-05T12:55:36.302Z,12.03
2018-02-05T12:58:03.902Z,8.50
2018-02-05T13:00:33.352Z,7.80
2018-02-05T13:03:08.460Z,9.33
2018-02-05T13:05:36.124Z,8.90
2018-02-05T13:08:03.701Z,9.40
2018-02-05T13:10:31.339Z,10.33
2018-02-05T13:12:58.972Z,9.53
2018-02-05T13:15:26.609Z,9.43
2018-02-05T13:17:54.249Z,10.97
2018-02-05T13:20:21.802Z,8.10
2018-02-05T13:22:49.380Z,10.27
2018-02-05T13:25:16.958Z,11.17
2018-02-05T13:27:44.525Z,11.03
2018-02-05T13:30:12.130Z,9.80
2018-02-05T13:32:39.744Z,9.77
2018-02-05T13:35:07.314Z,10.80
2018-02-05T13:37:34.885Z,16.87
2018-02-05T13:40:02.454Z,11.27
2018-02-05T13:42:30.098Z,11.30
2018-02-05T13:44:57.670Z,11.30
2018-02-05T13:47:25.321Z,8.37
2018-02-05T13:49:52.942Z,7.87
2018-02-05T13:52:20.562Z,9.33
2018-02-05T13:54:48.148Z,12.10
2018-02-05T13:57:15.728Z,11.67
2018-02-05T13:59:43.309Z,12.40
2018-02-05T14:02:10.892Z,12.60
2018-02-05T14:04:38.525Z,11.03
2018-02-05T14:07:06.091Z,10.00
2018-02-05T14:09:33.653Z,11.50
2018-02-05T14:12:01.226Z,11.37
2018-02-05T14:14:28.793Z,10.13
2018-02-05T14:16:56.366Z,11.30
2018-02-05T14:19:24.050Z,11.10
2018-02-05T14:21:51.688Z,13.07
2018-02-05T14:24:19.254Z,15.03
2018-02-05T14:26:46.823Z,14.07
2018-02-05T14:29:14.458Z,13.50
2018-02-05T14:31:42.104Z,13.57
2018-02-05T14:34:09.678Z,16.40
2018-02-05T14:36:37.242Z,17.10
2018-02-05T14:39:05.007Z,14.50
2018-02-05T14:41:32.634Z,17.17
2018-02-05T14:44:00.211Z,17.70
2018-02-05T14:46:27.787Z,15.13
2018-02-05T14:48:55.353Z,15.47
2018-02-05T14:51:22.936Z,16.70
2018-02-05T14:53:50.503Z,18.90
2018-02-05T14:56:18.193Z,18.70
2018-02-05T14:58:45.763Z,18.40
2018-02-05T15:01:13.394Z,23.20
2018-02-05T15:03:40.970Z,19.40
2018-02-05T15:06:08.600Z,24.10
2018-02-05T15:08:36.253Z,20.83
2018-02-05T15:11:03.899Z,19.13
2018-02-05T15:13:31.548Z,18.73
2018-02-05T15:15:59.114Z,21.40
2018-02-05T15:18:26.739Z,21.53
2018-02-05T15:20:54.388Z,24.37
2018-02-05T15:23:21.958Z,22.83
2018-02-05T15:25:49.535Z,27.57
2018-02-05T15:28:17.103Z,31.17
2018-02-05T15:30:44.794Z,33.50
2018-02-05T15:33:12.434Z,36.60
2018-02-05T15:35:40.070Z,44.00
2018-02-05T15:38:07.711Z,38.87
2018-02-05T15:40:35.282Z,31.00
2018-02-05T15:43:02.861Z,29.00
2018-02-05T15:45:30.492Z,22.10
2018-02-05T15:47:58.107Z,22.07
2018-02-05T15:50:25.693Z,20.73
2018-02-05T15:52:53.265Z,24.67
2018-02-05T15:55:20.903Z,25.77
2018-02-05T15:57:48.534Z,25.30
2018-02-05T16:00:16.096Z,24.60
2018-02-05T16:02:43.993Z,21.70
2018-02-05T16:05:11.613Z,23.80
2018-02-05T16:07:39.183Z,26.67
2018-02-05T16:10:06.810Z,24.17
2018-02-05T16:12:34.466Z,24.33
2018-02-05T16:15:02.083Z,40.10
2018-02-05T16:17:29.731Z,31.30
2018-02-05T16:19:57.299Z,29.33
2018-02-05T16:22:24.924Z,31.13
2018-02-05T16:24:52.520Z,40.63
2018-02-05T16:27:20.171Z,41.33
2018-02-05T16:29:47.753Z,34.53
2018-02-05T16:32:15.431Z,49.17
2018-02-05T16:34:43.077Z,48.10
2018-02-05T16:37:10.654Z,64.93
2018-02-05T16:39:38.282Z,63.40
2018-02-05T16:42:05.875Z,63.60
2018-02-05T16:44:33.458Z,69.80
2018-02-05T16:47:01.104Z,75.20
2018-02-05T16:49:28.739Z,77.77
2018-02-05T16:51:56.354Z,82.37
2018-02-05T16:54:23.930Z,78.47
2018-02-05T16:56:51.563Z,101.00
2018-02-05T16:59:19.190Z,67.20
2018-02-05T17:01:46.826Z,47.60
2018-02-05T17:04:14.414Z,47.87
2018-02-05T17:06:41.993Z,67.27
2018-02-05T17:09:09.580Z,76.63
2018-02-05T17:11:37.220Z,76.87
2018-02-05T17:14:04.854Z,73.60
2018-02-05T17:16:32.544Z,57.97
2018-02-05T17:19:00.187Z,54.43
2018-02-05T17:21:27.779Z,52.57
2018-02-05T17:23:55.616Z,60.47
2018-02-05T17:26:23.204Z,45.40
2018-02-05T17:28:50.826Z,55.80
2018-02-05T17:31:18.407Z,54.47
2018-02-05T17:33:46.031Z,56.87
2018-02-05T17:36:13.609Z,56.77
2018-02-05T17:38:41.247Z,55.93
2018-02-05T17:41:08.830Z,57.93
2018-02-05T17:43:36.437Z,54.67
2018-02-05T17:46:04.081Z,58.37
2018-02-05T17:48:31.659Z,54.70
2018-02-05T17:50:59.312Z,50.93
2018-02-05T17:53:26.904Z,48.10
2018-02-05T17:55:54.535Z,62.10
2018-02-05T17:58:22.126Z,58.60
2018-02-05T18:00:49.774Z,65.43
2018-02-05T18:03:17.381Z,68.20
2018-02-05T18:05:45.542Z,60.37
2018-02-05T18:08:13.176Z,53.90
2018-02-05T18:10:40.747Z,64.80
2018-02-05T18:13:08.378Z,59.27
2018-02-05T18:15:36.013Z,58.97
2018-02-05T18:18:03.600Z,54.00
2018-02-05T18:20:31.194Z,57.87
2018-02-05T18:22:59.113Z,55.60
2018-02-05T18:25:26.730Z,61.90
2018-02-05T18:27:54.366Z,51.97
2018-02-05T18:30:22.047Z,52.10
2018-02-05T18:32:49.629Z,53.27
2018-02-05T18:35:17.311Z,53.93
2018-02-05T18:37:44.890Z,55.53
2018-02-05T18:40:12.472Z,54.97
2018-02-05T18:42:40.113Z,64.97
2018-02-05T18:45:07.750Z,71.80
2018-02-05T18:47:35.335Z,58.17
2018-02-05T18:50:03.030Z,51.57
2018-02-05T18:52:30.618Z,52.23
2018-02-05T18:54:58.214Z,51.20
2018-02-05T18:57:25.788Z,61.67
2018-02-05T18:59:53.424Z,61.60
2018-02-05T19:02:22.891Z,51.67
2018-02-05T19:04:50.533Z,51.27
2018-02-05T19:07:18.140Z,51.43
2018-02-05T19:09:45.774Z,50.20
2018-02-05T19:12:13.363Z,43.93
2018-02-05T19:14:40.923Z,49.23
2018-02-05T19:17:08.542Z,45.60
2018-02-05T19:19:36.105Z,48.57
2018-02-05T19:22:03.730Z,46.10
2018-02-05T19:24:31.331Z,43.87
2018-02-05T19:26:58.911Z,46.93
2018-02-05T19:29:26.551Z,51.13
2018-02-05T19:31:54.167Z,49.93
2018-02-05T19:34:21.823Z,50.60
2018-02-05T19:36:49.395Z,55.17
2018-02-05T19:39:16.947Z,41.87
2018-02-05T19:41:44.531Z,44.83
2018-02-05T19:44:12.169Z,44.97
2018-02-05T19:46:39.807Z,50.13
2018-02-05T19:49:07.397Z,48.67
2018-02-05T19:51:35.122Z,57.63
2018-02-05T19:54:02.720Z,50.40
2018-02-05T19:56:30.298Z,39.57
2018-02-05T19:58:57.884Z,43.10
2018-02-05T20:01:25.519Z,45.80
2018-02-05T20:03:53.102Z,53.77
2018-02-05T20:06:20.729Z,53.77
2018-02-05T20:08:48.442Z,48.10
2018-02-05T20:11:16.014Z,41.00
2018-02-05T20:13:43.649Z,40.60
2018-02-05T20:16:11.221Z,31.00
2018-02-05T20:18:38.790Z,30.27
2018-02-05T20:21:06.409Z,29.77
2018-02-05T20:23:34.018Z,29.10
2018-02-05T20:26:01.727Z,25.07
2018-02-05T20:28:29.401Z,22.40
2018-02-05T20:30:57.028Z,24.60
2018-02-05T20:33:24.695Z,28.03
2018-02-05T20:35:53.208Z,24.10
2018-02-05T20:38:20.927Z,23.97
2018-02-05T20:40:48.561Z,29.10
2018-02-05T20:43:16.360Z,37.70
2018-02-05T20:45:43.934Z,35.20
2018-02-05T20:48:11.571Z,31.73
2018-02-05T20:50:39.213Z,32.27
2018-02-05T20:53:06.796Z,36.90
2018-02-05T20:55:34.377Z,36.40
2018-02-05T20:58:01.937Z,35.77
2018-02-05T21:00:29.631Z,35.47
2018-02-05T21:02:57.269Z,45.17
2018-02-05T21:05:24.842Z,48.63
2018-02-05T21:07:52.433Z,32.20
2018-02-05T21:10:20.069Z,28.93
2018-02-05T21:12:47.653Z,29.10
2018-02-05T21:15:15.286Z,27.70
2018-02-05T21:17:42.898Z,26.00
2018-02-05T21:20:10.469Z,31.07
2018-02-05T21:22:38.043Z,28.80
2018-02-05T21:25:05.619Z,28.57
2018-02-05T21:27:33.247Z,32.20
2018-02-05T21:30:00.827Z,34.80
2018-02-05T21:32:28.455Z,33.07
2018-02-05T21:34:56.072Z,26.80
2018-02-05T21:37:23.703Z,23.77
2018-02-05T21:39:51.331Z,24.00
2018-02-05T21:42:18.953Z,28.10
2018-02-05T21:44:46.578Z,30.20
2018-02-05T21:47:14.232Z,27.93
2018-02-05T21:49:41.863Z,31.47
2018-02-05T21:52:09.483Z,30.63
2018-02-05T21:54:37.051Z,31.23
2018-02-05T21:57:05.428Z,35.37
2018-02-05T21:59:33.018Z,42.10
2018-02-05T22:02:00.655Z,28.03
2018-02-05T22:04:28.296Z,26.97
2018-02-05T22:06:55.932Z,26.10
2018-02-05T22:09:23.564Z,27.90
2018-02-05T22:11:51.125Z,25.07
2018-02-05T22:14:18.781Z,19.30
2018-02-05T22:16:46.426Z,19.57
2018-02-05T22:19:14.041Z,19.40
2018-02-05T22:21:41.679Z,25.70
2018-02-05T22:24:09.245Z,25.87
2018-02-05T22:26:36.933Z,25.90
2018-02-05T22:29:04.505Z,26.60
2018-02-05T22:31:32.078Z,28.10
2018-02-05T22:33:59.716Z,29.27
2018-02-05T22:36:27.305Z,26.57
2018-02-05T22:38:54.934Z,29.37
2018-02-05T22:41:22.507Z,31.83
2018-02-05T22:43:50.209Z,30.90
2018-02-05T22:46:17.774Z,27.60
2018-02-05T22:48:45.346Z,29.27
2018-02-05T22:51:12.922Z,27.70
2018-02-05T22:53:40.497Z,26.80
2018-02-05T22:56:08.134Z,26.30
2018-02-05T22:58:35.764Z,25.43
2018-02-05T23:01:03.443Z,23.87
2018-02-05T23:03:31.014Z,23.37
2018-02-05T23:05:58.577Z,25.10
2018-02-05T23:08:26.228Z,20.70
2018-02-05T23:10:53.858Z,21.73
2018-02-05T23:13:21.444Z,20.80
2018-02-05T23:15:49.028Z,18.50
2018-02-05T23:18:16.651Z,20.63
2018-02-05T23:20:44.224Z,17.60
2018-02-05T23:23:11.786Z,17.20
2018-02-05T23:25:39.370Z,18.43
2018-02-05T23:28:06.920Z,18.70
2018-02-05T23:30:34.555Z,15.30
2018-02-05T23:33:02.196Z,13.60
2018-02-05T23:35:29.766Z,11.47
2018-02-05T23:37:57.393Z,11.33
2018-02-05T23:40:24.966Z,10.80
2018-02-05T23:42:52.591Z,9.40
2018-02-05T23:45:20.162Z,10.57
2018-02-05T23:47:47.746Z,12.03
2018-02-05T23:50:15.319Z,11.20
2018-02-05T23:52:42.884Z,11.40
2018-02-05T23:55:10.502Z,12.47
2018-02-05T23:57:38.071Z,13.50
